Time;durP1;ratioP1;P1;durP2;ratioP2;P2;SDS_P1;SDS_P2;PMS_P1;PMS_P2;Temp;Humidity;BMP_temperature;BMP_pressure;BME280_temperature;BME280_humidity;BME280_pressure;Samples;Min_cycle;Max_cycle;Signal;HPM_P1;HPM_P2
2022/11/20 00:00:43;;;;;;;12.93;7.28;;;;;;;;;;5015331;28;20092;-73
2022/11/20 00:03:08;;;;;;;11.80;6.50;;;;;;;;;;5027253;28;20025;-73
2022/11/20 00:05:33;;;;;;;10.33;4.87;;;;;;;;;;5022639;28;20530;-74
2022/11/20 00:07:59;;;;;;;7.07;4.40;;;;;;;;;;5010275;28;20289;-72
2022/11/20 00:10:24;;;;;;;4.80;3.13;;;;;;;;;;5007003;28;20321;-73
2022/11/20 00:12:49;;;;;;;4.60;2.73;;;;;;;;;;5027205;28;20499;-73
2022/11/20 00:15:14;;;;;;;2.73;1.80;;;;;;;;;;5029082;28;20032;-72
2022/11/20 00:17:40;;;;;;;2.67;1.47;;;;;;;;;;5023023;28;20287;-73
2022/11/20 00:20:05;;;;;;;2.08;1.20;;;;;;;;;;5008871;28;20672;-73
2022/11/20 00:22:30;;;;;;;1.75;0.93;;;;;;;;;;5024015;28;20033;-73
2022/11/20 00:24:57;;;;;;;0.93;0.70;;;;;;;;;;5024729;28;20464;-73
2022/11/20 00:27:22;;;;;;;2.08;0.80;;;;;;;;;;5004749;28;20511;-73
2022/11/20 00:29:48;;;;;;;0.88;0.65;;;;;;;;;;5025732;28;20030;-73
2022/11/20 00:32:13;;;;;;;0.83;0.60;;;;;;;;;;5018468;28;20072;-73
2022/11/20 00:34:38;;;;;;;1.60;0.80;;;;;;;;;;5025870;28;20283;-73
2022/11/20 00:37:03;;;;;;;1.63;0.90;;;;;;;;;;5020371;28;20325;-73
2022/11/20 00:39:29;;;;;;;1.30;0.80;;;;;;;;;;5010868;28;20163;-73
2022/11/20 00:41:54;;;;;;;1.33;0.90;;;;;;;;;;5032676;28;20033;-73
2022/11/20 00:44:19;;;;;;;1.20;0.60;;;;;;;;;;5022690;28;20064;-73
2022/11/20 00:46:44;;;;;;;1.63;0.93;;;;;;;;;;5026457;28;20278;-71
2022/11/20 00:49:09;;;;;;;3.50;1.17;;;;;;;;;;5008626;28;20021;-74
2022/11/20 00:51:35;;;;;;;1.47;0.97;;;;;;;;;;5025563;28;20343;-74
2022/11/20 00:54:01;;;;;;;0.80;0.73;;;;;;;;;;5006239;28;20311;-73
2022/11/20 00:56:27;;;;;;;2.35;0.70;;;;;;;;;;5031293;28;20282;-73
2022/11/20 00:58:52;;;;;;;1.52;0.88;;;;;;;;;;5024398;28;20537;-73
2022/11/20 01:01:20;;;;;;;1.42;1.00;;;;;;;;;;5014594;28;20097;-74
2022/11/20 01:03:47;;;;;;;2.33;0.90;;;;;;;;;;5010317;28;20116;-73
2022/11/20 01:06:16;;;;;;;1.40;1.00;;;;;;;;;;5024874;28;20125;-73
2022/11/20 01:08:42;;;;;;;1.13;0.90;;;;;;;;;;5025792;28;20032;-73
2022/11/20 01:11:09;;;;;;;2.00;1.00;;;;;;;;;;5032536;28;20136;-73
2022/11/20 01:13:38;;;;;;;0.70;0.68;;;;;;;;;;5008355;28;20026;-73
2022/11/20 01:16:04;;;;;;;1.65;1.10;;;;;;;;;;5011918;28;20039;-73
2022/11/20 01:18:29;;;;;;;1.33;0.85;;;;;;;;;;5026860;28;20101;-74
2022/11/20 01:20:54;;;;;;;1.60;1.00;;;;;;;;;;5032543;28;20033;-73
2022/11/20 01:23:19;;;;;;;3.50;1.13;;;;;;;;;;5013414;28;20037;-73
2022/11/20 01:25:44;;;;;;;1.97;1.10;;;;;;;;;;5014900;28;20036;-72
2022/11/20 01:28:10;;;;;;;2.27;1.70;;;;;;;;;;5030167;28;20738;-73
2022/11/20 01:30:35;;;;;;;3.20;2.13;;;;;;;;;;5011607;28;20286;-72
2022/11/20 01:33:00;;;;;;;4.00;2.50;;;;;;;;;;5008924;28;20302;-73
2022/11/20 01:35:25;;;;;;;3.67;2.17;;;;;;;;;;5015979;28;20084;-73
2022/11/20 01:37:51;;;;;;;3.63;2.47;;;;;;;;;;5026819;28;20041;-73
2022/11/20 01:40:16;;;;;;;4.23;2.13;;;;;;;;;;5026344;28;20113;-74
2022/11/20 01:46:02;;;;;;;4.00;2.10;;;;;;;;;;5031329;28;20833;-72
2022/11/20 01:48:31;;;;;;;3.47;2.20;;;;;;;;;;4998724;28;20032;-73
2022/11/20 01:50:57;;;;;;;3.72;2.35;;;;;;;;;;5028845;28;20033;-73
2022/11/20 01:53:25;;;;;;;2.55;1.70;;;;;;;;;;5025944;28;20036;-73
2022/11/20 01:55:53;;;;;;;3.20;1.80;;;;;;;;;;5024949;28;20040;-73
2022/11/20 01:58:20;;;;;;;4.72;2.13;;;;;;;;;;5024773;28;20022;-72
2022/11/20 02:00:45;;;;;;;2.60;1.83;;;;;;;;;;5028128;28;20045;-73
2022/11/20 02:03:16;;;;;;;4.20;2.10;;;;;;;;;;5018399;28;20051;-73
2022/11/20 02:05:59;;;;;;;4.15;2.40;;;;;;;;;;5024204;28;20281;-72
2022/11/20 02:08:25;;;;;;;4.78;2.70;;;;;;;;;;5027726;28;20498;-73
2022/11/20 02:10:50;;;;;;;5.13;2.87;;;;;;;;;;5022655;28;20061;-73
2022/11/20 02:16:00;;;;;;;3.53;2.30;;;;;;;;;;5030312;28;20040;-73
2022/11/20 02:18:25;;;;;;;4.63;2.50;;;;;;;;;;5011304;28;20023;-73
2022/11/20 02:20:53;;;;;;;4.80;2.13;;;;;;;;;;5016130;28;20036;-73
2022/11/20 02:23:32;;;;;;;3.40;2.03;;;;;;;;;;5009387;28;20057;-73
2022/11/20 02:25:58;;;;;;;3.78;2.08;;;;;;;;;;5022557;28;20026;-73
2022/11/20 02:28:24;;;;;;;2.85;2.05;;;;;;;;;;5008788;28;20033;-73
2022/11/20 02:30:49;;;;;;;3.83;2.40;;;;;;;;;;5026177;28;20613;-73
2022/11/20 02:33:14;;;;;;;3.73;2.30;;;;;;;;;;5023729;28;20041;-73
2022/11/20 02:35:41;;;;;;;3.20;1.80;;;;;;;;;;5023424;28;20491;-73
2022/11/20 02:38:06;;;;;;;3.85;2.80;;;;;;;;;;5020858;28;20561;-73
2022/11/20 02:40:32;;;;;;;5.67;2.80;;;;;;;;;;5026378;28;20064;-73
2022/11/20 02:42:57;;;;;;;6.37;3.33;;;;;;;;;;5026478;28;20283;-73
2022/11/20 02:45:23;;;;;;;4.67;3.20;;;;;;;;;;5028631;28;20315;-74
2022/11/20 02:47:48;;;;;;;6.70;3.70;;;;;;;;;;5009422;28;20303;-73
2022/11/20 02:50:14;;;;;;;7.22;4.53;;;;;;;;;;5024545;28;20033;-74
2022/11/20 02:52:39;;;;;;;8.40;3.97;;;;;;;;;;5012408;28;20599;-73
2022/11/20 02:55:05;;;;;;;9.13;4.63;;;;;;;;;;5009898;28;20278;-73
2022/11/20 02:57:30;;;;;;;7.13;4.25;;;;;;;;;;5030451;28;20366;-72
2022/11/20 02:59:55;;;;;;;8.33;5.23;;;;;;;;;;5013513;28;20087;-73
2022/11/20 03:02:21;;;;;;;12.05;5.93;;;;;;;;;;5030187;28;20281;-77
2022/11/20 03:04:46;;;;;;;10.40;6.18;;;;;;;;;;5028763;28;20025;-77
2022/11/20 03:07:11;;;;;;;10.17;5.70;;;;;;;;;;5028875;28;20104;-77
2022/11/20 03:09:37;;;;;;;10.40;5.80;;;;;;;;;;5026421;28;20341;-78
2022/11/20 03:12:02;;;;;;;13.27;6.70;;;;;;;;;;5028955;28;20029;-78
2022/11/20 03:14:27;;;;;;;10.15;6.30;;;;;;;;;;5027995;28;20908;-78
2022/11/20 03:16:53;;;;;;;11.15;6.03;;;;;;;;;;5027161;28;20029;-77
2022/11/20 03:19:18;;;;;;;11.20;6.07;;;;;;;;;;5027339;28;20514;-77
2022/11/20 03:21:43;;;;;;;12.80;6.60;;;;;;;;;;5011976;28;20029;-77
2022/11/20 03:24:08;;;;;;;13.23;6.00;;;;;;;;;;5031242;28;20021;-78
2022/11/20 03:26:34;;;;;;;9.60;5.93;;;;;;;;;;5030013;28;20357;-77
2022/11/20 03:29:00;;;;;;;9.37;6.00;;;;;;;;;;5025241;28;20281;-76
2022/11/20 03:31:27;;;;;;;11.35;6.00;;;;;;;;;;5022136;28;20272;-76
2022/11/20 03:33:52;;;;;;;8.60;5.30;;;;;;;;;;5015326;28;20036;-76
2022/11/20 03:36:18;;;;;;;8.30;5.23;;;;;;;;;;5023017;28;20021;-77
2022/11/20 03:38:43;;;;;;;10.02;5.00;;;;;;;;;;5030106;28;20033;-78
2022/11/20 03:41:13;;;;;;;7.20;4.75;;;;;;;;;;5020033;28;20033;-76
2022/11/20 03:43:38;;;;;;;;;;;;;;;;;;5009974;28;20064;-77
2022/11/20 03:46:03;;;;;;;9.20;4.63;;;;;;;;;;5027282;28;19995;-77
2022/11/20 03:48:29;;;;;;;8.13;4.72;;;;;;;;;;5032370;28;20067;-77
2022/11/20 03:51:14;;;;;;;8.00;4.77;;;;;;;;;;5010513;28;20387;-77
2022/11/20 03:53:40;;;;;;;7.82;4.70;;;;;;;;;;5033047;28;20037;-78
2022/11/20 03:56:06;;;;;;;10.65;4.95;;;;;;;;;;5024440;28;20029;-77
2022/11/20 03:58:32;;;;;;;8.43;5.00;;;;;;;;;;5030077;28;20036;-76
2022/11/20 04:00:58;;;;;;;7.78;4.93;;;;;;;;;;5009827;28;20057;-77
2022/11/20 04:03:23;;;;;;;6.82;4.50;;;;;;;;;;5024400;28;20056;-76
2022/11/20 04:05:48;;;;;;;8.50;5.23;;;;;;;;;;5008740;28;20025;-78
2022/11/20 04:08:13;;;;;;;8.50;5.00;;;;;;;;;;5031843;28;20373;-77
2022/11/20 04:10:38;;;;;;;9.33;5.13;;;;;;;;;;5006621;28;20053;-77
2022/11/20 04:13:04;;;;;;;8.77;5.30;;;;;;;;;;5024972;28;20091;-76
2022/11/20 04:15:29;;;;;;;9.07;5.80;;;;;;;;;;5025062;28;20029;-77
2022/11/20 04:17:54;;;;;;;8.00;5.43;;;;;;;;;;5028154;28;20030;-77
2022/11/20 04:20:20;;;;;;;10.43;6.22;;;;;;;;;;5024198;28;21070;-76
2022/11/20 04:22:45;;;;;;;8.95;5.90;;;;;;;;;;5027085;28;20033;-77
2022/11/20 04:25:10;;;;;;;10.73;7.00;;;;;;;;;;5006954;28;20129;-78
2022/11/20 04:27:36;;;;;;;11.67;7.17;;;;;;;;;;5029046;28;20612;-77
2022/11/20 04:30:01;;;;;;;11.67;7.03;;;;;;;;;;5010002;28;20497;-76
2022/11/20 04:32:26;;;;;;;9.88;6.35;;;;;;;;;;5016049;28;20029;-77
2022/11/20 04:34:51;;;;;;;13.33;6.83;;;;;;;;;;5008893;28;20499;-76
2022/11/20 04:37:17;;;;;;;11.60;6.43;;;;;;;;;;5022836;28;20348;-77
2022/11/20 04:39:42;;;;;;;10.57;6.43;;;;;;;;;;5022901;28;20041;-77
2022/11/20 04:44:52;;;;;;;10.85;6.15;;;;;;;;;;5029907;28;20064;-77
2022/11/20 04:47:17;;;;;;;8.57;5.77;;;;;;;;;;5032085;28;20026;-77
2022/11/20 04:49:42;;;;;;;9.07;6.40;;;;;;;;;;5032043;28;20092;-77
2022/11/20 04:52:07;;;;;;;10.47;6.57;;;;;;;;;;5031865;28;20029;-78
2022/11/20 04:54:33;;;;;;;10.03;6.70;;;;;;;;;;5027902;28;20041;-77
2022/11/20 04:56:58;;;;;;;10.70;6.43;;;;;;;;;;5036261;28;20282;-77
2022/11/20 04:59:23;;;;;;;10.17;6.43;;;;;;;;;;5016190;28;20277;-75
2022/11/20 05:01:48;;;;;;;9.48;5.97;;;;;;;;;;5035327;28;20699;-77
2022/11/20 05:04:14;;;;;;;9.90;5.90;;;;;;;;;;5027329;28;20025;-77
2022/11/20 05:06:39;;;;;;;8.70;5.87;;;;;;;;;;5031624;28;20033;-78
2022/11/20 05:09:05;;;;;;;10.10;6.03;;;;;;;;;;5014207;28;20061;-77
2022/11/20 05:11:31;;;;;;;10.03;5.63;;;;;;;;;;5029385;28;20075;-77
2022/11/20 05:13:58;;;;;;;7.55;4.88;;;;;;;;;;5033045;28;20033;-77
2022/11/20 05:16:23;;;;;;;8.82;5.32;;;;;;;;;;5034117;28;20033;-77
2022/11/20 05:18:49;;;;;;;9.07;5.57;;;;;;;;;;5026133;28;20024;-78
2022/11/20 05:21:15;;;;;;;7.85;4.88;;;;;;;;;;5033245;28;20033;-78
2022/11/20 05:23:40;;;;;;;7.60;4.80;;;;;;;;;;5027179;28;20057;-77
2022/11/20 05:26:07;;;;;;;8.50;5.18;;;;;;;;;;5011587;28;20116;-76
2022/11/20 05:28:33;;;;;;;7.47;4.80;;;;;;;;;;5032534;28;20036;-76
2022/11/20 05:31:05;;;;;;;6.80;4.35;;;;;;;;;;5023466;28;20391;-77
2022/11/20 05:33:31;;;;;;;6.60;3.95;;;;;;;;;;5026132;28;20033;-77
2022/11/20 05:35:59;;;;;;;6.17;4.17;;;;;;;;;;5022896;28;20032;-76
2022/11/20 05:38:24;;;;;;;6.53;4.22;;;;;;;;;;5029488;28;20405;-75
2022/11/20 05:40:49;;;;;;;5.15;3.50;;;;;;;;;;5016716;28;20124;-77
2022/11/20 05:43:15;;;;;;;6.13;3.87;;;;;;;;;;5029819;28;20036;-76
2022/11/20 05:45:40;;;;;;;6.33;4.20;;;;;;;;;;5027784;28;20664;-75
2022/11/20 05:48:05;;;;;;;6.37;4.07;;;;;;;;;;5034373;28;20037;-76
2022/11/20 05:50:30;;;;;;;6.47;3.67;;;;;;;;;;5034088;28;20163;-76
2022/11/20 05:52:58;;;;;;;7.13;3.63;;;;;;;;;;5028371;28;20696;-77
2022/11/20 05:55:23;;;;;;;8.95;4.15;;;;;;;;;;5025680;28;20091;-75
2022/11/20 05:57:49;;;;;;;6.30;3.80;;;;;;;;;;5010296;28;20132;-76
2022/11/20 06:00:14;;;;;;;5.63;3.75;;;;;;;;;;5025647;28;20502;-76
2022/11/20 06:02:39;;;;;;;9.38;4.47;;;;;;;;;;5015236;28;20033;-76
2022/11/20 06:05:05;;;;;;;6.80;3.90;;;;;;;;;;5027891;28;20033;-76
2022/11/20 06:07:30;;;;;;;6.90;4.20;;;;;;;;;;5022448;28;20835;-70
2022/11/20 06:09:55;;;;;;;6.13;3.55;;;;;;;;;;5024988;28;20030;-76
2022/11/20 06:12:21;;;;;;;6.57;3.37;;;;;;;;;;5026469;28;20021;-75
2022/11/20 06:14:46;;;;;;;8.00;3.83;;;;;;;;;;5031590;28;20025;-76
2022/11/20 06:17:11;;;;;;;5.80;3.50;;;;;;;;;;5025794;28;20033;-76
2022/11/20 06:19:36;;;;;;;4.73;3.10;;;;;;;;;;5029453;28;20024;-77
2022/11/20 06:22:01;;;;;;;5.17;3.03;;;;;;;;;;5021216;28;20029;-76
2022/11/20 06:24:27;;;;;;;4.70;2.93;;;;;;;;;;5010592;28;20079;-76
2022/11/20 06:26:52;;;;;;;3.50;2.20;;;;;;;;;;5004330;28;20025;-76
2022/11/20 06:29:17;;;;;;;4.10;2.60;;;;;;;;;;5021962;28;20283;-76
2022/11/20 06:31:42;;;;;;;4.30;2.80;;;;;;;;;;5012077;28;20033;-76
2022/11/20 06:34:08;;;;;;;6.30;3.60;;;;;;;;;;5027094;28;20486;-77
2022/11/20 06:36:33;;;;;;;6.25;3.03;;;;;;;;;;5023744;28;20405;-76
2022/11/20 06:38:59;;;;;;;4.55;3.30;;;;;;;;;;5009002;28;20136;-77
2022/11/20 06:41:25;;;;;;;4.90;3.35;;;;;;;;;;5023430;28;20124;-76
2022/11/20 06:43:50;;;;;;;6.82;3.67;;;;;;;;;;5006566;28;20036;-76
2022/11/20 06:46:19;;;;;;;7.68;4.60;;;;;;;;;;5026545;28;20029;-76
2022/11/20 06:48:45;;;;;;;5.90;3.90;;;;;;;;;;5025053;28;20075;-77
2022/11/20 06:51:10;;;;;;;7.78;5.05;;;;;;;;;;5020240;28;20279;-77
2022/11/20 06:53:36;;;;;;;10.23;5.03;;;;;;;;;;5026120;28;20101;-76
2022/11/20 06:56:01;;;;;;;7.55;4.40;;;;;;;;;;5026606;28;20071;-77
2022/11/20 06:58:27;;;;;;;8.05;4.72;;;;;;;;;;5018294;28;20101;-77
2022/11/20 07:00:53;;;;;;;5.13;3.70;;;;;;;;;;5023666;28;20476;-76
2022/11/20 07:03:18;;;;;;;6.10;4.05;;;;;;;;;;5026945;28;20155;-75
2022/11/20 07:05:45;;;;;;;8.27;3.80;;;;;;;;;;5021867;28;20033;-77
2022/11/20 07:08:11;;;;;;;14.70;7.35;;;;;;;;;;5027470;28;20018;-76
2022/11/20 07:10:36;;;;;;;12.00;7.13;;;;;;;;;;5023935;28;20030;-76
2022/11/20 07:13:01;;;;;;;11.48;7.03;;;;;;;;;;5025497;28;20044;-76
2022/11/20 07:15:26;;;;;;;8.57;5.63;;;;;;;;;;5019121;28;20084;-77
2022/11/20 07:17:52;;;;;;;10.23;4.40;;;;;;;;;;5027503;28;20269;-76
2022/11/20 07:20:17;;;;;;;7.70;5.17;;;;;;;;;;5027959;28;20033;-77
2022/11/20 07:22:42;;;;;;;8.83;5.43;;;;;;;;;;5024180;28;20721;-75
2022/11/20 07:25:08;;;;;;;6.87;4.73;;;;;;;;;;5029382;28;20286;-76
2022/11/20 07:27:34;;;;;;;8.32;5.30;;;;;;;;;;5027503;28;20365;-70
2022/11/20 07:29:59;;;;;;;8.70;5.45;;;;;;;;;;5010341;28;20025;-71
2022/11/20 07:32:24;;;;;;;10.60;5.97;;;;;;;;;;5020722;28;20594;-71
2022/11/20 07:34:49;;;;;;;9.00;5.73;;;;;;;;;;5022627;28;20033;-69
2022/11/20 07:37:15;;;;;;;9.33;5.50;;;;;;;;;;5022469;28;20286;-70
2022/11/20 07:39:41;;;;;;;8.27;5.72;;;;;;;;;;5023675;28;20029;-71
2022/11/20 07:42:06;;;;;;;11.13;6.50;;;;;;;;;;5024099;28;20030;-71
2022/11/20 07:44:31;;;;;;;9.45;5.57;;;;;;;;;;5007992;28;20025;-78
2022/11/20 07:46:57;;;;;;;10.90;5.63;;;;;;;;;;5027876;28;20029;-76
2022/11/20 07:49:22;;;;;;;10.43;6.77;;;;;;;;;;5007301;28;20649;-72
2022/11/20 07:51:49;;;;;;;11.17;6.70;;;;;;;;;;5030120;28;20269;-72
2022/11/20 07:54:15;;;;;;;12.82;7.88;;;;;;;;;;5017612;28;20075;-72
2022/11/20 07:56:40;;;;;;;11.57;7.20;;;;;;;;;;5023509;28;20025;-78
2022/11/20 07:59:05;;;;;;;13.40;7.30;;;;;;;;;;5007939;28;20029;-78
2022/11/20 08:01:30;;;;;;;36.45;10.75;;;;;;;;;;5015454;28;20270;-77
2022/11/20 08:03:56;;;;;;;12.70;7.93;;;;;;;;;;5024284;28;20395;-78
2022/11/20 08:06:21;;;;;;;13.60;8.10;;;;;;;;;;5025239;28;20289;-71
2022/11/20 08:08:46;;;;;;;13.70;8.03;;;;;;;;;;5015918;28;20065;-71
2022/11/20 08:14:14;;;;;;;12.15;6.85;;;;;;;;;;5024482;28;20399;-78
2022/11/20 08:16:40;;;;;;;11.93;7.65;;;;;;;;;;5012295;28;20125;-78
2022/11/20 08:19:05;;;;;;;14.80;8.13;;;;;;;;;;5009450;28;20049;-78
2022/11/20 08:21:31;;;;;;;13.48;8.23;;;;;;;;;;5028738;28;20080;-77
2022/11/20 08:23:56;;;;;;;12.02;7.32;;;;;;;;;;5030035;28;20030;-77
2022/11/20 08:26:22;;;;;;;12.88;8.07;;;;;;;;;;5006947;28;20044;-76
2022/11/20 08:28:48;;;;;;;13.63;7.65;;;;;;;;;;5021923;28;20419;-75
2022/11/20 08:31:13;;;;;;;13.98;7.53;;;;;;;;;;5027381;28;20029;-74
2022/11/20 08:33:38;;;;;;;15.60;8.90;;;;;;;;;;5025598;28;20021;-76
2022/11/20 08:36:04;;;;;;;13.67;8.67;;;;;;;;;;5024825;28;20175;-76
2022/11/20 08:38:30;;;;;;;14.10;8.40;;;;;;;;;;5023628;28;20295;-75
2022/11/20 08:43:42;;;;;;;14.50;8.38;;;;;;;;;;5026378;28;20043;-76
2022/11/20 08:46:08;;;;;;;16.03;9.37;;;;;;;;;;5021492;28;20026;-78
2022/11/20 08:48:33;;;;;;;16.70;9.37;;;;;;;;;;5007867;28;20715;-77
2022/11/20 08:50:59;;;;;;;16.37;9.30;;;;;;;;;;5012604;28;20491;-75
2022/11/20 08:53:24;;;;;;;16.00;10.15;;;;;;;;;;5026708;28;20608;-74
2022/11/20 08:55:49;;;;;;;16.73;10.57;;;;;;;;;;5024449;28;20087;-74
2022/11/20 08:58:14;;;;;;;20.37;11.07;;;;;;;;;;5023140;28;20673;-74
2022/11/20 09:00:40;;;;;;;20.40;11.00;;;;;;;;;;5024306;28;20064;-76
2022/11/20 09:03:05;;;;;;;20.03;10.50;;;;;;;;;;5027443;28;20030;-76
2022/11/20 09:05:30;;;;;;;20.80;11.07;;;;;;;;;;5014078;28;20087;-78
2022/11/20 09:07:56;;;;;;;18.07;10.50;;;;;;;;;;5027878;28;20033;-70
2022/11/20 09:10:21;;;;;;;22.10;11.85;;;;;;;;;;5026806;28;20041;-72
2022/11/20 09:12:48;;;;;;;19.23;10.97;;;;;;;;;;5007533;28;20574;-71
2022/11/20 09:15:13;;;;;;;22.25;10.38;;;;;;;;;;5024652;28;20361;-72
2022/11/20 09:17:39;;;;;;;20.17;10.27;;;;;;;;;;5015176;28;20072;-71
2022/11/20 09:20:04;;;;;;;24.27;12.20;;;;;;;;;;5009411;28;20285;-71
2022/11/20 09:22:30;;;;;;;23.05;11.02;;;;;;;;;;5029211;28;20025;-71
2022/11/20 09:24:55;;;;;;;18.87;10.43;;;;;;;;;;5023078;28;20033;-72
2022/11/20 09:27:21;;;;;;;21.90;10.87;;;;;;;;;;5027176;28;20282;-72
2022/11/20 09:29:46;;;;;;;22.83;11.27;;;;;;;;;;5013628;28;20037;-72
2022/11/20 09:32:11;;;;;;;23.60;12.23;;;;;;;;;;5015091;28;20032;-73
2022/11/20 09:34:37;;;;;;;20.17;11.40;;;;;;;;;;5026811;28;20279;-72
2022/11/20 09:37:02;;;;;;;18.48;11.02;;;;;;;;;;5025125;28;20483;-73
2022/11/20 09:39:27;;;;;;;23.20;11.30;;;;;;;;;;5007865;28;20045;-73
2022/11/20 09:41:52;;;;;;;20.67;11.15;;;;;;;;;;5025657;28;20971;-73
2022/11/20 09:44:27;;;;;;;19.17;10.68;;;;;;;;;;5022839;28;20034;-73
2022/11/20 09:46:55;;;;;;;20.70;11.23;;;;;;;;;;5031529;28;20036;-74
2022/11/20 09:49:38;;;;;;;25.13;11.95;;;;;;;;;;5028349;28;20072;-75
2022/11/20 09:52:19;;;;;;;18.25;11.00;;;;;;;;;;5024221;28;20029;-73
2022/11/20 09:54:45;;;;;;;20.55;10.85;;;;;;;;;;5028094;28;20471;-75
2022/11/20 09:57:21;;;;;;;20.52;10.95;;;;;;;;;;5026734;28;20032;-75
2022/11/20 09:59:50;;;;;;;17.58;11.00;;;;;;;;;;5020139;28;20112;-73
2022/11/20 10:02:24;;;;;;;19.25;9.90;;;;;;;;;;5029316;28;20052;-75
2022/11/20 10:04:59;;;;;;;17.08;9.48;;;;;;;;;;5027293;28;20491;-73
2022/11/20 10:07:29;;;;;;;16.33;8.57;;;;;;;;;;5023695;28;20033;-74
2022/11/20 10:09:55;;;;;;;15.43;8.40;;;;;;;;;;5014089;28;20026;-73
2022/11/20 10:12:23;;;;;;;17.45;10.15;;;;;;;;;;5020343;28;20064;-73
2022/11/20 10:14:58;;;;;;;16.73;9.80;;;;;;;;;;5023836;28;20104;-73
2022/11/20 10:17:42;;;;;;;15.85;9.63;;;;;;;;;;5010642;28;20035;-73
2022/11/20 10:20:22;;;;;;;13.88;8.45;;;;;;;;;;5024508;28;20076;-74
2022/11/20 10:22:50;;;;;;;15.00;8.55;;;;;;;;;;5029379;28;20033;-74
2022/11/20 10:25:18;;;;;;;13.73;8.65;;;;;;;;;;5027529;28;20052;-73
2022/11/20 10:27:56;;;;;;;18.80;10.68;;;;;;;;;;5011280;28;20483;-73
2022/11/20 10:30:24;;;;;;;14.55;9.25;;;;;;;;;;5027099;28;20056;-73
2022/11/20 10:33:19;;;;;;;13.23;8.77;;;;;;;;;;5027862;28;20383;-74
2022/11/20 10:35:56;;;;;;;15.23;8.95;;;;;;;;;;5011995;28;20041;-74
2022/11/20 10:38:24;;;;;;;14.57;8.73;;;;;;;;;;5009742;28;20806;-73
2022/11/20 10:41:24;;;;;;;15.55;7.97;;;;;;;;;;5003909;28;20100;-73
2022/11/20 10:43:40;;;;;;;14.98;9.32;;;;;;;;;;5002229;28;20038;-72
2022/11/20 10:46:08;;;;;;;17.02;9.98;;;;;;;;;;5004694;28;20112;-73
2022/11/20 10:48:33;;;;;;;15.70;10.25;;;;;;;;;;5001570;28;20022;-73
2022/11/20 10:50:58;;;;;;;20.98;11.75;;;;;;;;;;5005765;28;20092;-72
2022/11/20 10:53:47;;;;;;;21.90;12.60;;;;;;;;;;5007836;28;20061;-72
2022/11/20 10:56:30;;;;;;;23.13;13.55;;;;;;;;;;5004460;28;20084;-72
2022/11/20 10:58:58;;;;;;;36.45;17.90;;;;;;;;;;5007075;28;20117;-73
2022/11/20 11:01:25;;;;;;;25.65;13.35;;;;;;;;;;5009582;28;20031;-75
2022/11/20 11:03:52;;;;;;;23.70;13.82;;;;;;;;;;4998671;28;20443;-73
2022/11/20 11:06:42;;;;;;;19.70;11.98;;;;;;;6.31;nan;99920.25;5008144;28;20447;-75
2022/11/20 11:09:16;;;;;;;24.80;13.50;;;;;;;;;;5003773;28;20160;-75
2022/11/20 11:11:41;;;;;;;20.25;12.07;;;;;;;;;;5002895;28;20037;-74
2022/11/20 11:14:11;;;;;;;23.58;14.55;;;;;;;;;;5006141;28;20034;-75
2022/11/20 11:16:48;;;;;;;18.58;10.98;;;;;;;;;;5000547;28;20157;-73
2022/11/20 11:19:13;;;;;;;18.83;11.93;;;;;;;;;;5005027;28;20400;-73
2022/11/20 11:21:45;;;;;;;19.35;11.98;;;;;;;;;;5005978;28;20040;-74
2022/11/20 11:24:19;;;;;;;28.27;16.27;;;;;;;;;;5004290;28;20034;-74
2022/11/20 11:26:54;;;;;;;24.83;13.93;;;;;;;6.35;nan;99882.22;5010078;28;20026;-74
2022/11/20 11:29:20;;;;;;;21.08;11.20;;;;;;;;;;5013540;28;20542;-73
2022/11/20 11:31:45;;;;;;;20.17;11.00;;;;;;;;;;5007638;28;20026;-73
2022/11/20 11:34:14;;;;;;;24.67;13.00;;;;;;;;;;5006987;28;20034;-73
2022/11/20 11:36:39;;;;;;;25.58;13.80;;;;;;;;;;5003022;28;20121;-73
2022/11/20 11:39:06;;;;;;;26.35;14.50;;;;;;;;;;5022965;28;20124;-73
2022/11/20 11:41:34;;;;;;;23.45;12.93;;;;;;;;;;5005080;28;20017;-72
2022/11/20 11:47:03;;;;;;;23.65;12.70;;;;;;;;;;5031317;28;20183;-73
2022/11/20 11:49:28;;;;;;;25.55;13.25;;;;;;;;;;5019594;28;20030;-73
2022/11/20 11:52:16;;;;;;;30.33;14.40;;;;;;;;;;5028205;28;20044;-74
2022/11/20 11:54:44;;;;;;;26.17;13.65;;;;;;;;;;5025651;28;20505;-74
2022/11/20 11:57:17;;;;;;;28.92;15.45;;;;;;;;;;5029694;28;20033;-73
2022/11/20 12:00:01;;;;;;;33.00;16.42;;;;;;;;;;5030177;28;20099;-72
2022/11/20 12:02:26;;;;;;;28.05;15.13;;;;;;;;;;5025452;28;20024;-73
2022/11/20 12:05:01;;;;;;;27.97;14.37;;;;;;;;;;5010803;28;20029;-73
2022/11/20 12:07:30;;;;;;;31.73;16.67;;;;;;;;;;5031483;28;20129;-73
2022/11/20 12:09:56;;;;;;;28.58;14.85;;;;;;;;;;5028889;28;20037;-73
2022/11/20 12:12:27;;;;;;;27.95;15.60;;;;;;;;;;5023103;28;20039;-73
2022/11/20 12:14:55;;;;;;;24.85;13.27;;;;;;;;;;5024823;28;20038;-73
2022/11/20 12:17:20;;;;;;;20.38;11.63;;;;;;;;;;5026866;28;20466;-73
2022/11/20 12:19:45;;;;;;;25.37;12.80;;;;;;;;;;5011889;28;20039;-73
2022/11/20 12:22:17;;;;;;;23.47;11.90;;;;;;;;;;5022068;28;20501;-73
2022/11/20 12:24:42;;;;;;;25.85;13.52;;;;;;;;;;5006242;28;20648;-73
2022/11/20 12:27:13;;;;;;;19.97;11.67;;;;;;;;;;5025140;28;20030;-73
2022/11/20 12:30:01;;;;;;;19.00;10.85;;;;;;;;;;5026831;28;20047;-73
2022/11/20 12:32:35;;;;;;;26.88;14.05;;;;;;;;;;4992377;28;20108;-74
2022/11/20 12:35:01;;;;;;;21.35;12.68;;;;;;;;;;5021501;28;20029;-73
2022/11/20 12:37:51;;;;;;;21.40;12.88;;;;;;;;;;5009203;28;20042;-74
2022/11/20 12:40:16;;;;;;;;;;;;;;;;;;5019016;28;20120;-73
2022/11/20 12:45:54;;;;;;;28.88;14.50;;;;;;;;;;5023367;28;20041;-74
2022/11/20 12:48:28;;;;;;;24.70;13.40;;;;;;;;;;4984089;28;20048;-73
2022/11/20 12:50:56;;;;;;;24.77;14.23;;;;;;;;;;5026442;28;20025;-74
2022/11/20 12:53:28;;;;;;;25.55;14.85;;;;;;;;;;5024631;28;20116;-73
2022/11/20 12:56:13;;;;;;;21.60;13.30;;;;;;;;;;5017893;28;20034;-72
2022/11/20 12:58:50;;;;;;;25.27;14.00;;;;;;;;;;5019993;28;20025;-72
2022/11/20 13:01:47;;;;;;;24.77;14.80;;;;;;;;;;5021525;28;20709;-72
2022/11/20 13:04:15;;;;;;;40.35;17.88;;;;;;;;;;5025959;28;20056;-72
2022/11/20 13:06:41;;;;;;;38.75;18.17;;;;;;;;;;5029983;28;20029;-72
2022/11/20 13:09:10;;;;;;;29.70;16.90;;;;;;;;;;5027678;28;20025;-72
2022/11/20 13:11:47;;;;;;;33.92;19.20;;;;;;;;;;5029104;28;20022;-72
2022/11/20 13:14:31;;;;;;;27.13;14.50;;;;;;;;;;5029489;28;20538;-71
2022/11/20 13:17:05;;;;;;;35.13;20.50;;;;;;;;;;5008351;28;20025;-72
2022/11/20 13:19:31;;;;;;;33.83;20.60;;;;;;;;;;5025860;28;20124;-72
2022/11/20 13:21:56;;;;;;;36.83;21.88;;;;;;;;;;5026480;28;20533;-71
2022/11/20 13:24:27;;;;;;;43.17;22.85;;;;;;;;;;5024126;28;20572;-72
2022/11/20 13:27:05;;;;;;;46.47;25.98;;;;;;;;;;5006262;28;20029;-71
2022/11/20 13:29:30;;;;;;;27.65;15.85;;;;;;;;;;5030793;28;20036;-70
2022/11/20 13:32:25;;;;;;;31.70;16.55;;;;;;;;;;5028992;28;20034;-71
2022/11/20 13:34:58;;;;;;;35.92;18.60;;;;;;;;;;4993272;28;20037;-71
2022/11/20 13:37:32;;;;;;;32.00;18.05;;;;;;;;;;5026273;28;20045;-72
2022/11/20 13:40:13;;;;;;;31.00;17.77;;;;;;;;;;5012684;28;20025;-71
2022/11/20 13:42:46;;;;;;;30.90;15.73;;;;;;;;;;5010739;28;20030;-72
2022/11/20 13:45:22;;;;;;;30.08;17.05;;;;;;;;;;5033728;28;20475;-73
2022/11/20 13:47:52;;;;;;;27.20;16.50;;;;;;;;;;5028701;28;20511;-72
2022/11/20 13:50:17;;;;;;;27.00;15.02;;;;;;;;;;5009098;28;20034;-72
2022/11/20 13:52:46;;;;;;;27.75;15.88;;;;;;;;;;5009438;28;20072;-71
2022/11/20 13:55:23;;;;;;;29.17;17.40;;;;;;;;;;5026987;28;20029;-71
2022/11/20 13:57:48;;;;;;;29.60;17.17;;;;;;;;;;5028292;28;20034;-72
2022/11/20 14:00:13;;;;;;;34.47;17.13;;;;;;;;;;5013145;28;20037;-72
2022/11/20 14:02:39;;;;;;;29.80;17.40;;;;;;;;;;5030948;28;20022;-72
2022/11/20 14:05:05;;;;;;;31.58;17.13;;;;;;;;;;5024357;28;20333;-72
2022/11/20 14:07:36;;;;;;;27.58;15.20;;;;;;;;;;5024392;28;20040;-72
2022/11/20 14:10:01;;;;;;;34.38;18.23;;;;;;;;;;5031062;28;20040;-72
2022/11/20 14:12:31;;;;;;;33.78;17.63;;;;;;;;;;5029162;28;20063;-73
2022/11/20 14:14:56;;;;;;;;;;;;;;;;;;5009345;28;20026;-71
2022/11/20 14:17:25;;;;;;;28.13;15.52;;;;;;;;;;5027762;28;19928;-72
2022/11/20 14:19:51;;;;;;;31.50;17.27;;;;;;;;;;5008731;28;20519;-72
2022/11/20 14:22:24;;;;;;;27.98;15.82;;;;;;;;;;5024485;28;20037;-72
2022/11/20 14:25:00;;;;;;;36.47;17.65;;;;;;;;;;5025241;28;20037;-72
2022/11/20 14:27:25;;;;;;;32.67;17.75;;;;;;;;;;5027107;28;20399;-72
2022/11/20 14:29:50;;;;;;;33.85;18.00;;;;;;;;;;5025824;28;20034;-72
2022/11/20 14:32:17;;;;;;;40.25;20.33;;;;;;;;;;5023576;28;20499;-72
2022/11/20 14:34:44;;;;;;;40.70;20.08;;;;;;;;;;5010412;28;20036;-73
2022/11/20 14:37:16;;;;;;;42.58;22.27;;;;;;;;;;5019346;28;21036;-74
2022/11/20 14:39:42;;;;;;;42.55;20.83;;;;;;;;;;5020429;28;20033;-72
2022/11/20 14:42:18;;;;;;;41.88;20.50;;;;;;;;;;5034095;28;20382;-72
2022/11/20 14:44:43;;;;;;;42.13;21.77;;;;;;;;;;5011824;28;20053;-72
2022/11/20 14:47:11;;;;;;;44.63;24.13;;;;;;;;;;5022110;28;20021;-70
2022/11/20 14:49:36;;;;;;;43.42;23.65;;;;;;;;;;5026244;28;20056;-71
2022/11/20 14:52:09;;;;;;;37.78;19.58;;;;;;;;;;5028036;28;20025;-73
2022/11/20 14:54:46;;;;;;;38.88;21.25;;;;;;;5.76;nan;99980.72;5029284;28;20534;-72